createdAt,value
2022-11-05T00:02:22.265Z,8.40
2022-11-05T00:06:44.989Z,8.40
2022-11-05T00:10:47.882Z,8.40
2022-11-05T00:15:08.240Z,8.40
2022-11-05T00:19:11.092Z,8.30
2022-11-05T00:23:32.886Z,8.30
2022-11-05T00:27:35.760Z,8.30
2022-11-05T00:31:38.630Z,8.30
2022-11-05T00:35:41.515Z,8.30
2022-11-05T00:39:45.720Z,8.20
2022-11-05T00:44:11.146Z,8.20
2022-11-05T00:48:31.440Z,8.20
2022-11-05T00:52:52.142Z,8.20
2022-11-05T00:57:00.607Z,8.20
2022-11-05T01:01:08.200Z,8.20
2022-11-05T01:05:11.049Z,8.20
2022-11-05T01:09:13.918Z,8.10
2022-11-05T01:13:19.844Z,8.10
2022-11-05T01:17:22.937Z,8.10
2022-11-05T01:21:25.826Z,8.00
2022-11-05T01:25:28.659Z,8.00
2022-11-05T01:29:32.862Z,8.00
2022-11-05T01:33:35.726Z,8.00
2022-11-05T01:37:39.111Z,7.90
2022-11-05T01:41:41.969Z,7.90
2022-11-05T01:45:48.687Z,7.80
2022-11-05T01:49:51.778Z,7.70
2022-11-05T01:53:56.769Z,7.60
2022-11-05T01:58:07.605Z,7.50
2022-11-05T02:02:11.979Z,7.50
2022-11-05T02:06:17.228Z,7.30
2022-11-05T02:10:20.466Z,7.30
2022-11-05T02:14:23.307Z,7.20
2022-11-05T02:18:34.526Z,7.10
2022-11-05T02:22:52.248Z,7.00
2022-11-05T02:31:04.338Z,6.80
2022-11-05T02:35:14.199Z,6.70
2022-11-05T02:39:28.182Z,6.70
2022-11-05T02:43:37.734Z,6.60
2022-11-05T02:47:45.330Z,6.50
2022-11-05T02:51:50.084Z,6.50
2022-11-05T02:55:55.577Z,6.40
2022-11-05T03:00:01.932Z,6.40
2022-11-05T03:04:07.583Z,6.30
2022-11-05T03:08:14.931Z,6.30
2022-11-05T03:12:22.745Z,6.20
2022-11-05T03:16:30.883Z,6.10
2022-11-05T03:20:38.339Z,6.10
2022-11-05T03:24:44.208Z,6.10
2022-11-05T03:28:48.883Z,6.00
2022-11-05T03:32:54.508Z,6.00
2022-11-05T03:36:59.481Z,5.90
2022-11-05T03:41:04.822Z,5.90
2022-11-05T03:45:11.519Z,5.80
2022-11-05T03:49:17.662Z,5.80
2022-11-05T03:53:24.075Z,5.80
2022-11-05T03:57:28.826Z,5.80
2022-11-05T04:01:32.360Z,5.80
2022-11-05T04:05:35.355Z,5.80
2022-11-05T04:09:57.285Z,5.80
2022-11-05T04:14:00.100Z,5.80
2022-11-05T04:18:03.043Z,5.80
2022-11-05T04:22:23.408Z,5.80
2022-11-05T04:26:27.608Z,5.70
2022-11-05T04:30:30.485Z,5.70
2022-11-05T04:34:33.323Z,5.60
2022-11-05T04:38:36.182Z,5.50
2022-11-05T04:42:40.449Z,5.50
2022-11-05T04:46:43.288Z,5.50
2022-11-05T04:50:46.145Z,5.50
2022-11-05T04:54:49.002Z,5.50
2022-11-05T04:58:53.216Z,5.40
2022-11-05T05:02:56.044Z,5.40
2022-11-05T05:06:59.003Z,5.40
2022-11-05T05:11:02.665Z,5.40
2022-11-05T05:15:07.408Z,5.40
2022-11-05T05:19:10.254Z,5.40
2022-11-05T05:23:13.404Z,5.40
2022-11-05T05:27:16.489Z,5.30
2022-11-05T05:31:20.818Z,5.30
2022-11-05T05:35:23.728Z,5.30
2022-11-05T05:39:27.408Z,5.20
2022-11-05T05:43:31.333Z,5.20
2022-11-05T05:47:35.545Z,5.20
2022-11-05T05:51:39.185Z,5.20
2022-11-05T05:55:42.061Z,5.20
2022-11-05T05:59:44.966Z,5.10
2022-11-05T06:03:49.622Z,5.10
2022-11-05T06:07:56.283Z,5.10
2022-11-05T06:11:59.162Z,5.10
2022-11-05T06:16:03.278Z,5.10
2022-11-05T06:20:08.998Z,5.10
2022-11-05T06:24:11.903Z,5.20
2022-11-05T06:28:14.952Z,5.20
2022-11-05T06:32:19.173Z,5.30
2022-11-05T06:36:33.705Z,5.30
2022-11-05T06:40:36.635Z,5.40
2022-11-05T06:44:39.514Z,5.50
2022-11-05T06:48:42.490Z,5.50
2022-11-05T06:52:46.763Z,5.60
2022-11-05T06:56:52.622Z,5.60
2022-11-05T07:00:55.496Z,5.70
2022-11-05T07:05:02.421Z,5.70
2022-11-05T07:09:06.676Z,5.80
2022-11-05T07:13:09.632Z,5.80
2022-11-05T07:17:12.532Z,5.90
2022-11-05T07:21:15.406Z,5.90
2022-11-05T07:25:19.802Z,6.00
2022-11-05T07:29:22.691Z,6.00
2022-11-05T07:33:25.551Z,6.10
2022-11-05T07:37:29.505Z,6.10
2022-11-05T07:41:33.755Z,6.20
2022-11-05T07:45:36.585Z,6.30
2022-11-05T07:49:39.628Z,6.40
2022-11-05T07:53:45.472Z,6.40
2022-11-05T07:57:50.469Z,6.50
2022-11-05T08:01:53.493Z,6.60
2022-11-05T08:05:56.677Z,6.70
2022-11-05T08:09:59.813Z,6.80
2022-11-05T08:14:04.223Z,6.90
2022-11-05T08:18:07.939Z,7.00
2022-11-05T08:22:10.838Z,7.20
2022-11-05T08:26:13.682Z,7.30
2022-11-05T08:30:17.882Z,7.50
2022-11-05T08:34:20.745Z,7.80
2022-11-05T08:42:26.748Z,9.20
2022-11-05T08:46:30.931Z,10.00
2022-11-05T08:50:34.021Z,10.70
2022-11-05T08:54:37.063Z,11.20
2022-11-05T08:58:39.940Z,11.60
2022-11-05T09:02:45.328Z,12.00
2022-11-05T09:06:48.253Z,12.50
2022-11-05T09:10:51.104Z,13.10
2022-11-05T09:14:54.160Z,13.50
2022-11-05T09:18:58.430Z,13.90
2022-11-05T09:23:01.456Z,14.30
2022-11-05T09:27:04.357Z,14.50
2022-11-05T09:31:08.259Z,14.70
2022-11-05T09:35:13.505Z,15.00
2022-11-05T09:39:16.365Z,15.50
2022-11-05T09:43:20.264Z,16.00
2022-11-05T09:47:24.965Z,16.30
2022-11-05T09:51:29.177Z,16.80
2022-11-05T09:55:34.619Z,17.20
2022-11-05T09:59:40.415Z,17.70
2022-11-05T10:03:46.530Z,18.10
2022-11-05T10:07:52.310Z,18.50
2022-11-05T10:16:01.226Z,19.00
2022-11-05T10:20:09.783Z,19.40
2022-11-05T13:02:33.514Z,16.80
2022-11-05T13:06:40.226Z,16.60
2022-11-05T13:10:49.291Z,16.30
2022-11-05T13:14:54.507Z,16.00
2022-11-05T13:19:00.196Z,15.90
2022-11-05T13:23:07.409Z,15.60
2022-11-05T13:27:17.191Z,15.50
2022-11-05T13:31:21.913Z,15.30
2022-11-05T13:35:28.159Z,15.20
2022-11-05T13:39:35.027Z,15.10
2022-11-05T13:43:46.288Z,14.80
2022-11-05T13:47:59.797Z,14.60
2022-11-05T13:52:11.925Z,14.40
2022-11-05T13:56:21.254Z,14.20
2022-11-05T14:00:25.139Z,14.10
2022-11-05T14:04:46.663Z,13.90
2022-11-05T14:08:51.676Z,13.80
2022-11-05T14:12:56.228Z,13.70
2022-11-05T14:17:13.984Z,13.60
2022-11-05T14:21:34.122Z,13.60
2022-11-05T14:26:01.237Z,13.60
2022-11-05T14:30:40.813Z,13.50
2022-11-05T14:34:46.072Z,13.50
2022-11-05T14:38:50.297Z,13.40
2022-11-05T14:42:54.789Z,13.40
2022-11-05T14:47:01.561Z,13.30
2022-11-05T14:51:31.374Z,13.20
2022-11-05T14:55:35.330Z,13.20
2022-11-05T14:59:57.181Z,13.10
2022-11-05T15:04:17.334Z,13.10
2022-11-05T15:08:30.208Z,13.10
2022-11-05T15:12:35.752Z,13.00
2022-11-05T15:16:43.458Z,12.90
2022-11-05T15:20:48.445Z,12.90
2022-11-05T15:24:51.460Z,12.80
2022-11-05T15:28:55.147Z,12.80
2022-11-05T15:33:08.867Z,12.70
2022-11-05T15:37:23.029Z,12.60
2022-11-05T15:41:28.608Z,12.60
2022-11-05T15:45:31.607Z,12.50
2022-11-05T15:49:34.633Z,12.50
2022-11-05T15:54:23.836Z,12.40
2022-11-05T15:58:20.080Z,12.40
2022-11-05T16:02:28.768Z,12.30
2022-11-05T16:06:36.607Z,12.20
2022-11-05T16:10:39.863Z,12.20
2022-11-05T16:14:44.110Z,12.10
2022-11-05T16:18:47.594Z,12.10
2022-11-05T16:22:51.461Z,12.00
2022-11-05T16:27:03.732Z,12.00
2022-11-05T16:31:08.308Z,12.00
2022-11-05T16:35:17.566Z,11.90
2022-11-05T16:39:20.431Z,11.90
2022-11-05T16:43:24.258Z,11.80
2022-11-05T16:47:28.560Z,11.80
2022-11-05T16:51:31.473Z,11.70
2022-11-05T16:55:34.541Z,11.70
2022-11-05T16:59:37.398Z,11.60
2022-11-05T17:03:41.686Z,11.60
2022-11-05T17:07:44.560Z,11.50
2022-11-05T17:11:47.390Z,11.50
2022-11-05T17:15:51.264Z,11.40
2022-11-05T17:19:55.470Z,11.40
2022-11-05T17:23:58.370Z,11.40
2022-11-05T17:28:01.446Z,11.30
2022-11-05T17:32:06.243Z,11.30
2022-11-05T17:36:11.581Z,11.20
2022-11-05T17:40:15.849Z,11.20
2022-11-05T17:44:18.783Z,11.20
2022-11-05T17:48:21.905Z,11.20
2022-11-05T17:52:26.133Z,11.10
2022-11-05T17:56:34.498Z,11.10
2022-11-05T18:00:38.992Z,11.10
2022-11-05T18:04:41.935Z,11.10
2022-11-05T18:08:46.211Z,11.10
2022-11-05T18:12:49.105Z,11.10
2022-11-05T18:16:52.388Z,11.00
2022-11-05T18:20:57.875Z,11.00
2022-11-05T18:25:02.099Z,11.00
2022-11-05T18:29:05.950Z,11.00
2022-11-05T18:33:09.031Z,10.90
2022-11-05T18:37:12.019Z,10.90
2022-11-05T18:41:16.519Z,10.90
2022-11-05T18:45:19.424Z,10.80
2022-11-05T18:49:22.278Z,10.80
2022-11-05T18:53:25.107Z,10.70
2022-11-05T18:57:29.494Z,10.70
2022-11-05T19:01:32.703Z,10.60
2022-11-05T19:05:35.667Z,10.60
2022-11-05T19:09:39.291Z,10.60
2022-11-05T19:13:44.085Z,10.60
2022-11-05T19:17:47.238Z,10.60
2022-11-05T19:21:50.125Z,10.50
2022-11-05T19:25:53.649Z,10.50
2022-11-05T19:29:57.849Z,10.50
2022-11-05T19:34:01.421Z,10.40
2022-11-05T19:38:04.238Z,10.40
2022-11-05T19:42:07.373Z,10.40
2022-11-05T19:46:13.062Z,10.40
2022-11-05T19:50:16.006Z,10.40
2022-11-05T19:54:18.848Z,10.40
2022-11-05T19:58:21.701Z,10.40
2022-11-05T20:02:26.164Z,10.40
2022-11-05T20:06:32.011Z,10.40
2022-11-05T20:10:37.366Z,10.40
2022-11-05T20:14:40.225Z,10.40
2022-11-05T20:18:44.431Z,10.40
2022-11-05T20:22:47.352Z,10.50
2022-11-05T20:26:50.186Z,10.50
2022-11-05T20:30:53.424Z,10.50
2022-11-05T20:34:57.798Z,10.50
2022-11-05T20:39:03.014Z,10.50
2022-11-05T20:43:05.848Z,10.50
2022-11-05T20:47:08.703Z,10.50
2022-11-05T20:51:14.036Z,10.50
2022-11-05T20:55:16.978Z,10.50
2022-11-05T20:59:19.896Z,10.50
2022-11-05T21:03:22.978Z,10.50
2022-11-05T21:07:27.252Z,10.50
2022-11-05T21:11:50.132Z,10.50
2022-11-05T21:15:53.871Z,10.50
2022-11-05T21:19:56.737Z,10.50
2022-11-05T21:24:01.007Z,10.50
2022-11-05T21:28:03.883Z,10.50
2022-11-05T21:32:06.834Z,10.50
2022-11-05T21:36:11.365Z,10.50
2022-11-05T21:40:16.141Z,10.50
2022-11-05T21:44:19.061Z,10.50
2022-11-05T21:48:22.220Z,10.50
2022-11-05T21:52:42.529Z,10.40
2022-11-05T21:57:19.269Z,10.40
2022-11-05T22:01:22.346Z,10.40
2022-11-05T22:05:25.273Z,10.30
2022-11-05T22:09:28.598Z,10.30
2022-11-05T22:13:32.915Z,10.30
2022-11-05T22:17:35.776Z,10.30
2022-11-05T22:21:38.613Z,10.30
2022-11-05T22:25:41.562Z,10.30
2022-11-05T22:29:46.199Z,10.30
2022-11-05T22:33:49.107Z,10.30
2022-11-05T22:37:51.979Z,10.30
2022-11-05T22:41:55.507Z,10.30
2022-11-05T22:46:03.694Z,10.30
2022-11-05T22:50:07.079Z,10.30
2022-11-05T22:54:10.636Z,10.30
2022-11-05T22:58:13.954Z,10.30
2022-11-05T23:02:18.739Z,10.30
2022-11-05T23:06:41.074Z,10.30
2022-11-05T23:11:03.476Z,10.30
2022-11-05T23:15:07.839Z,10.30
2022-11-05T23:19:29.066Z,10.30
2022-11-05T23:23:49.252Z,10.30
2022-11-05T23:27:53.960Z,10.30
2022-11-05T23:32:14.481Z,10.30
2022-11-05T23:36:36.121Z,10.30
2022-11-05T23:40:59.126Z,10.30
2022-11-05T23:45:19.517Z,10.30
2022-11-05T23:49:22.510Z,10.30
2022-11-05T23:53:27.052Z,10.30
2022-11-05T23:57:29.912Z,10.30
